createdAt,value
2017-02-10T00:00:02.933Z,41.23
2017-02-10T00:00:35.659Z,40.66
2017-02-10T00:01:08.396Z,40.66
2017-02-10T00:01:41.127Z,40.66
2017-02-10T00:02:13.870Z,41.23
2017-02-10T00:02:46.609Z,40.66
2017-02-10T00:03:19.337Z,41.33
2017-02-10T00:03:52.070Z,40.66
2017-02-10T00:04:25.283Z,41.13
2017-02-10T00:04:59.103Z,41.23
2017-02-10T00:05:32.029Z,40.66
2017-02-10T00:06:04.928Z,41.13
2017-02-10T00:06:37.664Z,41.33
2017-02-10T00:07:10.392Z,40.75
2017-02-10T00:07:43.127Z,40.66
2017-02-10T00:08:15.865Z,40.75
2017-02-10T00:08:48.770Z,40.84
2017-02-10T00:09:21.815Z,40.66
2017-02-10T00:09:54.843Z,41.13
2017-02-10T00:10:27.799Z,41.13
2017-02-10T00:11:00.909Z,40.47
2017-02-10T00:11:34.020Z,41.33
2017-02-10T00:12:07.726Z,41.33
2017-02-10T00:12:41.143Z,40.66
2017-02-10T00:13:14.525Z,40.66
2017-02-10T00:13:48.818Z,40.66
2017-02-10T00:14:23.216Z,40.56
2017-02-10T00:14:56.728Z,40.66
2017-02-10T00:15:29.882Z,40.66
2017-02-10T00:16:02.815Z,40.94
2017-02-10T00:16:35.980Z,41.13
2017-02-10T00:17:08.941Z,40.66
2017-02-10T00:17:41.675Z,41.23
2017-02-10T00:18:14.427Z,40.66
2017-02-10T00:18:47.440Z,41.23
2017-02-10T00:19:20.227Z,40.94
2017-02-10T00:19:53.003Z,40.75
2017-02-10T00:20:25.728Z,40.84
2017-02-10T00:20:58.610Z,40.66
2017-02-10T00:21:31.655Z,41.13
2017-02-10T00:22:04.738Z,40.75
2017-02-10T00:22:37.730Z,40.84
2017-02-10T00:23:10.684Z,40.84
2017-02-10T00:23:43.415Z,40.84
2017-02-10T00:24:16.135Z,41.13
2017-02-10T00:24:48.874Z,40.75
2017-02-10T00:25:21.609Z,41.23
2017-02-10T00:25:54.344Z,40.75
2017-02-10T00:26:27.084Z,40.75
2017-02-10T00:26:59.808Z,40.84
2017-02-10T00:27:32.555Z,40.75
2017-02-10T00:28:05.290Z,40.75
2017-02-10T00:28:38.025Z,40.84
2017-02-10T00:29:10.772Z,40.75
2017-02-10T00:29:43.503Z,40.75
2017-02-10T00:30:16.238Z,40.75
2017-02-10T00:30:48.951Z,40.84
2017-02-10T00:31:21.698Z,40.75
2017-02-10T00:31:54.417Z,40.84
2017-02-10T00:32:27.160Z,40.75
2017-02-10T00:32:59.890Z,40.75
2017-02-10T00:33:32.622Z,40.84
2017-02-10T00:34:05.360Z,40.75
2017-02-10T00:34:38.088Z,40.84
2017-02-10T00:35:10.829Z,40.94
2017-02-10T00:35:43.569Z,40.75
2017-02-10T00:36:16.291Z,40.84
2017-02-10T00:36:49.035Z,40.84
2017-02-10T00:37:21.765Z,40.75
2017-02-10T00:37:54.480Z,40.94
2017-02-10T00:38:27.208Z,40.84
2017-02-10T00:38:59.936Z,40.84
2017-02-10T00:39:32.674Z,40.84
2017-02-10T00:40:05.396Z,40.94
2017-02-10T00:40:38.148Z,40.75
2017-02-10T00:41:10.890Z,40.75
2017-02-10T00:41:43.616Z,40.75
2017-02-10T00:42:16.357Z,40.94
2017-02-10T00:42:49.090Z,40.75
2017-02-10T00:43:21.847Z,40.84
2017-02-10T00:43:54.586Z,40.75
2017-02-10T00:44:27.320Z,40.94
2017-02-10T00:45:00.061Z,40.84
2017-02-10T00:45:32.797Z,40.84
2017-02-10T00:46:05.588Z,40.75
2017-02-10T00:46:38.320Z,40.84
2017-02-10T00:47:11.050Z,40.84
2017-02-10T00:47:43.785Z,40.84
2017-02-10T00:48:16.521Z,40.94
2017-02-10T00:48:49.246Z,40.75
2017-02-10T00:49:21.990Z,40.94
2017-02-10T00:49:54.733Z,40.94
2017-02-10T00:50:27.511Z,40.84
2017-02-10T00:51:00.256Z,40.84
2017-02-10T00:51:32.986Z,40.84
2017-02-10T00:52:05.708Z,40.75
2017-02-10T00:52:38.441Z,40.75
2017-02-10T00:53:11.177Z,40.94
2017-02-10T00:53:43.893Z,40.84
2017-02-10T00:54:16.627Z,40.75
2017-02-10T00:54:49.369Z,40.84
2017-02-10T00:55:22.111Z,40.94
2017-02-10T00:55:54.841Z,40.84
2017-02-10T00:56:27.577Z,40.84
2017-02-10T00:57:00.312Z,40.94
2017-02-10T00:57:33.039Z,40.75
2017-02-10T00:58:05.789Z,40.75
2017-02-10T00:58:38.536Z,40.94
2017-02-10T00:59:11.266Z,40.94
2017-02-10T00:59:44.006Z,41.04
2017-02-10T01:00:16.746Z,40.94
2017-02-10T01:00:49.485Z,40.66
2017-02-10T01:01:22.227Z,40.66
2017-02-10T01:01:54.946Z,40.94
2017-02-10T01:02:27.680Z,40.66
2017-02-10T01:03:00.424Z,41.04
2017-02-10T01:03:33.159Z,40.84
2017-02-10T01:04:05.887Z,40.84
2017-02-10T01:04:38.614Z,41.04
2017-02-10T01:05:11.356Z,40.84
2017-02-10T01:05:44.099Z,40.66
2017-02-10T01:06:16.827Z,40.56
2017-02-10T01:06:49.598Z,40.94
2017-02-10T01:07:22.329Z,41.04
2017-02-10T01:07:55.075Z,40.84
2017-02-10T01:08:27.809Z,40.84
2017-02-10T01:09:00.552Z,40.84
2017-02-10T01:09:33.280Z,40.66
2017-02-10T01:10:06.016Z,40.84
2017-02-10T01:10:38.755Z,40.66
2017-02-10T01:11:11.497Z,40.94
2017-02-10T01:11:44.215Z,40.66
2017-02-10T01:12:16.961Z,41.04
2017-02-10T01:12:49.706Z,40.66
2017-02-10T01:13:22.446Z,41.04
2017-02-10T01:13:55.180Z,41.04
2017-02-10T01:14:27.912Z,40.66
2017-02-10T01:15:00.646Z,40.84
2017-02-10T01:15:33.383Z,40.66
2017-02-10T01:16:06.109Z,41.04
2017-02-10T01:16:38.857Z,40.56
2017-02-10T01:17:11.594Z,41.04
2017-02-10T01:17:44.335Z,41.04
2017-02-10T01:18:17.068Z,40.47
2017-02-10T01:18:49.804Z,41.13
2017-02-10T01:19:22.528Z,40.47
2017-02-10T01:19:55.252Z,41.04
2017-02-10T01:20:27.985Z,40.75
2017-02-10T01:21:00.704Z,40.47
2017-02-10T01:21:33.438Z,40.47
2017-02-10T01:22:06.165Z,41.13
2017-02-10T01:22:38.891Z,41.13
2017-02-10T01:23:11.615Z,40.75
2017-02-10T01:23:44.365Z,41.13
2017-02-10T01:24:17.121Z,40.75
2017-02-10T01:24:49.842Z,41.13
2017-02-10T01:25:22.573Z,40.66
2017-02-10T01:25:55.325Z,40.66
2017-02-10T01:26:28.058Z,40.66
2017-02-10T01:27:00.795Z,41.13
2017-02-10T01:27:33.541Z,41.13
2017-02-10T01:28:06.293Z,41.13
2017-02-10T01:28:39.014Z,40.66
2017-02-10T01:29:11.785Z,40.56
2017-02-10T01:29:44.515Z,41.04
2017-02-10T01:30:17.249Z,40.66
2017-02-10T01:30:49.979Z,41.04
2017-02-10T01:31:22.717Z,41.13
2017-02-10T01:31:55.453Z,40.66
2017-02-10T01:32:28.167Z,41.13
2017-02-10T01:33:00.901Z,40.56
2017-02-10T01:33:33.642Z,40.66
2017-02-10T01:34:06.384Z,40.75
2017-02-10T01:34:39.103Z,41.04
2017-02-10T01:35:11.834Z,40.56
2017-02-10T01:35:44.581Z,40.66
2017-02-10T01:36:17.312Z,40.56
2017-02-10T01:36:50.037Z,41.04
2017-02-10T01:37:22.773Z,41.04
2017-02-10T01:37:55.513Z,40.66
2017-02-10T01:38:28.233Z,41.04
2017-02-10T01:39:00.959Z,40.47
2017-02-10T01:39:33.699Z,41.23
2017-02-10T01:40:06.430Z,40.66
2017-02-10T01:40:39.171Z,40.66
2017-02-10T01:41:11.911Z,40.75
2017-02-10T01:41:44.640Z,40.66
2017-02-10T01:42:17.371Z,41.04
2017-02-10T01:42:50.101Z,40.56
2017-02-10T01:43:22.853Z,40.84
2017-02-10T01:43:55.599Z,40.56
2017-02-10T01:44:28.347Z,40.84
2017-02-10T01:45:01.095Z,40.84
2017-02-10T01:45:33.822Z,40.66
2017-02-10T01:46:06.561Z,40.66
2017-02-10T01:46:39.285Z,40.75
2017-02-10T01:47:12.032Z,40.75
2017-02-10T01:47:44.778Z,40.75
2017-02-10T01:48:17.507Z,40.66
2017-02-10T01:48:50.230Z,41.23
2017-02-10T01:49:22.958Z,40.66
2017-02-10T01:49:55.686Z,40.66
2017-02-10T01:50:28.431Z,40.66
2017-02-10T01:51:01.161Z,41.13
2017-02-10T01:51:33.895Z,41.04
2017-02-10T01:52:06.608Z,41.04
2017-02-10T01:52:39.335Z,40.66
2017-02-10T01:53:12.062Z,40.66
2017-02-10T01:53:44.802Z,40.56
2017-02-10T01:54:17.548Z,40.66
2017-02-10T01:54:50.275Z,40.66
2017-02-10T01:55:23.014Z,40.75
2017-02-10T01:55:55.783Z,40.94
2017-02-10T01:56:28.491Z,40.75
2017-02-10T01:57:01.226Z,40.66
2017-02-10T01:57:33.972Z,40.75
2017-02-10T01:58:06.695Z,41.23
2017-02-10T01:58:39.448Z,40.75
2017-02-10T01:59:12.179Z,41.13
2017-02-10T01:59:44.915Z,40.66
2017-02-10T02:00:17.641Z,40.94
2017-02-10T02:00:50.400Z,41.04
2017-02-10T02:01:23.166Z,40.47
2017-02-10T02:01:55.906Z,41.04
2017-02-10T02:02:28.644Z,40.66
2017-02-10T02:03:01.376Z,41.16
2017-02-10T02:03:34.116Z,40.56
2017-02-10T02:04:06.852Z,41.04
2017-02-10T02:04:39.585Z,40.75
2017-02-10T02:05:12.336Z,40.47
2017-02-10T02:05:45.112Z,40.94
2017-02-10T02:06:17.843Z,40.56
2017-02-10T02:06:50.571Z,40.56
2017-02-10T02:07:23.310Z,40.75
2017-02-10T02:07:56.033Z,41.04
2017-02-10T02:08:28.761Z,40.94
2017-02-10T02:09:01.543Z,40.66
2017-02-10T02:09:34.273Z,40.56
2017-02-10T02:10:07.017Z,40.75
2017-02-10T02:10:39.747Z,40.75
2017-02-10T02:11:12.480Z,40.66
2017-02-10T02:11:45.217Z,40.75
2017-02-10T02:12:17.947Z,40.56
2017-02-10T02:12:50.673Z,40.56
2017-02-10T02:13:23.413Z,40.66
2017-02-10T02:13:56.145Z,40.75
2017-02-10T02:14:28.881Z,40.75
2017-02-10T02:15:01.608Z,40.56
2017-02-10T02:15:34.346Z,40.66
2017-02-10T02:16:07.084Z,40.47
2017-02-10T02:16:39.820Z,40.56
2017-02-10T02:17:12.562Z,40.66
2017-02-10T02:17:45.288Z,40.66
2017-02-10T02:18:18.013Z,41.13
2017-02-10T02:18:50.741Z,40.66
2017-02-10T02:19:23.474Z,41.04
2017-02-10T02:19:56.196Z,40.66
2017-02-10T02:20:28.935Z,40.66
2017-02-10T02:21:01.686Z,40.66
2017-02-10T02:21:34.433Z,40.75
2017-02-10T02:22:07.173Z,40.66
2017-02-10T02:22:39.910Z,40.66
2017-02-10T02:23:12.630Z,40.27
2017-02-10T02:23:45.366Z,40.75
2017-02-10T02:24:18.107Z,40.66
2017-02-10T02:24:50.827Z,40.75
2017-02-10T02:25:23.551Z,40.47
2017-02-10T02:25:56.343Z,40.66
2017-02-10T02:26:29.074Z,40.66
2017-02-10T02:27:01.845Z,40.47
2017-02-10T02:27:34.570Z,40.66
2017-02-10T02:28:07.310Z,40.75
2017-02-10T02:28:40.043Z,40.66
2017-02-10T02:29:12.794Z,40.66
2017-02-10T02:29:45.515Z,40.66
2017-02-10T02:30:18.250Z,40.66
2017-02-10T02:30:50.981Z,40.47
2017-02-10T02:31:23.711Z,40.66
2017-02-10T02:31:56.464Z,40.66
2017-02-10T02:32:29.204Z,40.66
2017-02-10T02:33:01.941Z,40.66
2017-02-10T02:33:34.691Z,40.56
2017-02-10T02:34:07.421Z,40.47
2017-02-10T02:34:40.169Z,40.56
2017-02-10T02:35:12.896Z,40.75
2017-02-10T02:35:45.638Z,40.66
2017-02-10T02:36:18.375Z,40.56
2017-02-10T02:36:51.105Z,40.56
2017-02-10T02:37:23.845Z,40.27
2017-02-10T02:37:56.583Z,40.75
2017-02-10T02:38:29.323Z,40.56
2017-02-10T02:39:02.056Z,40.75
2017-02-10T02:39:34.792Z,40.56
2017-02-10T02:40:07.554Z,40.56
2017-02-10T02:40:40.325Z,40.75
2017-02-10T02:41:13.061Z,40.66
2017-02-10T02:41:45.805Z,40.66
2017-02-10T02:42:18.545Z,40.84
2017-02-10T02:42:51.281Z,40.75
2017-02-10T02:43:24.011Z,40.66
2017-02-10T02:43:56.744Z,40.66
2017-02-10T02:44:29.493Z,40.66
2017-02-10T02:45:02.223Z,40.66
2017-02-10T02:45:34.967Z,40.75
2017-02-10T02:46:07.715Z,40.66
2017-02-10T02:46:40.445Z,40.56
2017-02-10T02:47:13.191Z,40.47
2017-02-10T02:47:45.930Z,40.66
2017-02-10T02:48:18.670Z,40.47
2017-02-10T02:48:51.403Z,40.56
2017-02-10T02:49:24.162Z,40.75
2017-02-10T02:49:56.912Z,40.66
2017-02-10T02:50:29.659Z,40.75
2017-02-10T02:51:02.407Z,40.66
2017-02-10T02:51:35.129Z,40.47
2017-02-10T02:52:07.873Z,40.67
2017-02-10T02:52:40.617Z,40.66
2017-02-10T02:53:14.172Z,40.56
2017-02-10T02:53:46.890Z,40.66
2017-02-10T02:54:19.621Z,40.56
2017-02-10T02:54:52.365Z,40.67
2017-02-10T02:55:25.095Z,40.66
2017-02-10T02:55:57.827Z,40.56
2017-02-10T02:56:30.568Z,40.66
2017-02-10T02:57:04.120Z,40.66
2017-02-10T02:57:36.853Z,40.56
2017-02-10T02:58:09.591Z,40.84
2017-02-10T02:58:42.316Z,40.66
2017-02-10T02:59:15.049Z,40.58
2017-02-10T02:59:47.779Z,40.56
2017-02-10T03:00:20.513Z,40.66
2017-02-10T03:00:53.244Z,40.66
2017-02-10T03:01:25.970Z,40.56
2017-02-10T03:01:58.707Z,40.66
2017-02-10T03:02:31.440Z,40.66
2017-02-10T03:03:04.173Z,40.47
2017-02-10T03:03:36.912Z,40.75
2017-02-10T03:04:09.660Z,40.56
2017-02-10T03:04:42.385Z,40.56
2017-02-10T03:05:15.123Z,40.56
2017-02-10T03:05:47.871Z,40.56
2017-02-10T03:06:20.601Z,40.66
2017-02-10T03:06:53.338Z,40.66
2017-02-10T03:07:26.074Z,40.37
2017-02-10T03:07:58.833Z,40.47
2017-02-10T03:08:31.560Z,40.56
2017-02-10T03:09:04.277Z,40.66
2017-02-10T03:09:37.006Z,40.75
2017-02-10T03:10:09.744Z,40.47
2017-02-10T03:10:42.479Z,40.47
2017-02-10T03:11:15.231Z,40.66
2017-02-10T03:11:47.966Z,40.75
2017-02-10T03:12:20.691Z,40.66
2017-02-10T03:12:53.430Z,40.66
2017-02-10T03:13:26.176Z,40.47
2017-02-10T03:13:58.902Z,40.56
2017-02-10T03:14:31.635Z,40.66
2017-02-10T03:15:04.356Z,40.47
2017-02-10T03:15:37.085Z,40.27
2017-02-10T03:16:09.827Z,40.56
2017-02-10T03:16:42.553Z,40.75
2017-02-10T03:17:15.275Z,40.37
2017-02-10T03:17:48.014Z,40.66
2017-02-10T03:18:20.758Z,40.37
2017-02-10T03:18:53.484Z,40.37
2017-02-10T03:19:26.212Z,40.75
2017-02-10T03:19:58.942Z,40.75
2017-02-10T03:20:31.673Z,40.47
2017-02-10T03:21:04.400Z,40.66
2017-02-10T03:21:37.139Z,40.37
2017-02-10T03:22:09.881Z,40.37
2017-02-10T03:22:42.636Z,40.27
2017-02-10T03:23:15.386Z,40.27
2017-02-10T03:23:48.128Z,40.75
2017-02-10T03:24:20.891Z,40.84
2017-02-10T03:24:53.637Z,40.56
2017-02-10T03:25:26.371Z,40.37
2017-02-10T03:25:59.127Z,40.47
2017-02-10T03:26:31.860Z,40.37
2017-02-10T03:27:04.569Z,40.37
2017-02-10T03:27:37.313Z,40.66
2017-02-10T03:28:10.049Z,40.66
2017-02-10T03:28:42.766Z,40.66
2017-02-10T03:29:15.495Z,40.37
2017-02-10T03:29:48.225Z,40.27
2017-02-10T03:30:20.954Z,40.27
2017-02-10T03:30:53.691Z,40.27
2017-02-10T03:31:26.433Z,40.75
2017-02-10T03:31:59.176Z,40.84
2017-02-10T03:32:31.911Z,40.37
2017-02-10T03:33:04.657Z,40.37
2017-02-10T03:33:37.392Z,40.47
2017-02-10T03:34:10.132Z,40.56
2017-02-10T03:34:42.873Z,40.37
2017-02-10T03:35:15.615Z,40.66
2017-02-10T03:35:48.348Z,40.37
2017-02-10T03:36:21.070Z,40.47
2017-02-10T03:36:53.799Z,40.47
2017-02-10T03:37:26.534Z,40.66
2017-02-10T03:37:59.262Z,40.47
2017-02-10T03:38:32.009Z,40.56
2017-02-10T03:39:04.741Z,40.47
2017-02-10T03:39:37.467Z,40.47
2017-02-10T03:40:10.196Z,40.37
2017-02-10T03:40:42.923Z,40.56
2017-02-10T03:41:15.667Z,40.84
2017-02-10T03:41:48.418Z,40.47
2017-02-10T03:42:21.157Z,40.37
2017-02-10T03:42:53.890Z,40.66
2017-02-10T03:43:26.626Z,40.66
2017-02-10T03:43:59.351Z,40.27
2017-02-10T03:44:32.085Z,40.56
2017-02-10T03:45:04.818Z,40.84
2017-02-10T03:45:37.564Z,40.37
2017-02-10T03:46:10.296Z,40.47
2017-02-10T03:46:43.017Z,40.47
2017-02-10T03:47:15.759Z,40.56
2017-02-10T03:47:48.489Z,40.84
2017-02-10T03:48:21.237Z,40.75
2017-02-10T03:48:53.980Z,40.56
2017-02-10T03:49:26.717Z,40.47
2017-02-10T03:49:59.454Z,40.56
2017-02-10T03:50:32.187Z,40.47
2017-02-10T03:51:04.927Z,40.66
2017-02-10T03:51:37.664Z,40.56
2017-02-10T03:52:10.409Z,40.56
2017-02-10T03:52:43.139Z,40.37
2017-02-10T03:53:15.865Z,40.56
2017-02-10T03:53:48.596Z,40.66
2017-02-10T03:54:21.333Z,40.47
2017-02-10T03:54:54.051Z,40.47
2017-02-10T03:55:26.783Z,40.56
2017-02-10T03:55:59.517Z,40.47
2017-02-10T03:56:32.248Z,40.47
2017-02-10T03:57:04.989Z,40.75
2017-02-10T03:57:37.728Z,40.56
2017-02-10T03:58:10.456Z,40.47
2017-02-10T03:58:43.204Z,40.84
2017-02-10T03:59:15.959Z,40.56
2017-02-10T03:59:48.692Z,40.56
2017-02-10T04:00:21.423Z,40.66
2017-02-10T04:00:54.154Z,40.47
2017-02-10T04:01:26.883Z,40.56
2017-02-10T04:01:59.604Z,40.67
2017-02-10T04:02:32.329Z,40.47
2017-02-10T04:03:05.066Z,40.47
2017-02-10T04:03:37.803Z,40.47
2017-02-10T04:04:10.536Z,40.66
2017-02-10T04:04:43.298Z,40.66
2017-02-10T04:05:16.039Z,40.75
2017-02-10T04:05:48.778Z,40.66
2017-02-10T04:06:21.529Z,40.66
2017-02-10T04:06:54.260Z,40.56
2017-02-10T04:07:27.001Z,40.66
2017-02-10T04:07:59.748Z,40.56
2017-02-10T04:08:32.500Z,40.66
2017-02-10T04:09:05.245Z,40.56
2017-02-10T04:09:37.970Z,40.66
2017-02-10T04:10:10.706Z,40.56
2017-02-10T04:10:43.437Z,40.56
2017-02-10T04:11:16.165Z,40.56
2017-02-10T04:11:48.912Z,40.47
2017-02-10T04:12:21.653Z,40.75
2017-02-10T04:12:54.377Z,40.56
2017-02-10T04:13:27.108Z,40.75
2017-02-10T04:13:59.841Z,40.47
2017-02-10T04:14:32.586Z,40.66
2017-02-10T04:15:06.012Z,40.47
2017-02-10T04:15:38.759Z,40.66
2017-02-10T04:16:11.498Z,40.56
2017-02-10T04:16:44.214Z,40.84
2017-02-10T04:17:16.942Z,40.47
2017-02-10T04:17:49.674Z,40.47
2017-02-10T04:18:22.407Z,40.56
2017-02-10T04:18:55.134Z,40.75
2017-02-10T04:19:27.878Z,40.47
2017-02-10T04:20:00.614Z,40.75
2017-02-10T04:20:33.353Z,40.47
2017-02-10T04:21:06.110Z,40.77
2017-02-10T04:21:38.841Z,40.56
2017-02-10T04:22:11.571Z,40.84
2017-02-10T04:22:44.323Z,40.56
2017-02-10T04:23:17.053Z,40.56
2017-02-10T04:23:49.819Z,40.75
2017-02-10T04:24:22.557Z,40.75
2017-02-10T04:24:55.271Z,40.75
2017-02-10T04:25:27.998Z,40.37
2017-02-10T04:26:00.734Z,40.56
2017-02-10T04:26:33.468Z,40.47
2017-02-10T04:27:06.203Z,40.66
2017-02-10T04:27:38.948Z,40.56
2017-02-10T04:28:11.685Z,40.56
2017-02-10T04:28:44.412Z,40.47
2017-02-10T04:29:17.145Z,40.56
2017-02-10T04:29:49.877Z,40.37
2017-02-10T04:30:22.628Z,40.56
2017-02-10T04:30:55.361Z,40.27
2017-02-10T04:31:28.091Z,40.37
2017-02-10T04:32:00.830Z,40.47
2017-02-10T04:32:33.555Z,40.56
2017-02-10T04:33:06.274Z,40.56
2017-02-10T04:33:39.043Z,40.47
2017-02-10T04:34:11.772Z,40.47
2017-02-10T04:34:44.495Z,40.56
2017-02-10T04:35:17.239Z,40.47
2017-02-10T04:35:49.986Z,40.37
2017-02-10T04:36:22.713Z,40.56
2017-02-10T04:36:55.444Z,40.47
2017-02-10T04:37:28.180Z,40.37
2017-02-10T04:38:00.907Z,40.47
2017-02-10T04:38:33.631Z,40.27
2017-02-10T04:39:06.367Z,40.47
2017-02-10T04:39:39.107Z,40.27
2017-02-10T04:40:11.832Z,40.47
2017-02-10T04:40:44.570Z,40.47
2017-02-10T04:41:17.351Z,40.48
2017-02-10T04:41:50.083Z,40.47
2017-02-10T04:42:22.797Z,40.37
2017-02-10T04:42:55.536Z,40.66
2017-02-10T04:43:28.269Z,40.56
2017-02-10T04:44:01.003Z,40.37
2017-02-10T04:44:33.772Z,40.56
2017-02-10T04:45:06.505Z,40.37
2017-02-10T04:45:39.238Z,40.27
2017-02-10T04:46:11.962Z,40.47
2017-02-10T04:46:44.701Z,40.17
2017-02-10T04:47:17.414Z,40.17
2017-02-10T04:47:50.151Z,40.56
2017-02-10T04:48:22.874Z,40.17
2017-02-10T04:48:55.607Z,40.37
2017-02-10T04:49:28.342Z,40.27
2017-02-10T04:50:01.077Z,40.17
2017-02-10T04:50:33.808Z,40.08
2017-02-10T04:51:06.548Z,40.08
2017-02-10T04:51:39.292Z,40.17
2017-02-10T04:52:12.047Z,40.1
2017-02-10T04:52:44.773Z,40.17
2017-02-10T04:53:17.504Z,40.27
2017-02-10T04:53:50.236Z,40.29
2017-02-10T04:54:22.971Z,40.08
2017-02-10T04:54:55.707Z,40.37
2017-02-10T04:55:28.444Z,40.2
2017-02-10T04:56:01.208Z,40.29
2017-02-10T04:56:33.937Z,40.27
2017-02-10T04:57:06.682Z,40.17
2017-02-10T04:57:39.406Z,40.27
2017-02-10T04:58:12.143Z,40.17
2017-02-10T04:58:44.874Z,40.17
2017-02-10T04:59:17.603Z,40.08
2017-02-10T04:59:50.323Z,40.17
2017-02-10T05:00:23.065Z,40.17
2017-02-10T05:00:55.802Z,40.17
2017-02-10T05:01:28.534Z,40.2
2017-02-10T05:02:01.260Z,40.37
2017-02-10T05:02:33.996Z,40.2
2017-02-10T05:03:06.738Z,40.1
2017-02-10T05:03:39.464Z,40.27
2017-02-10T05:04:12.177Z,40.37
2017-02-10T05:04:44.903Z,40.17
2017-02-10T05:05:17.628Z,40.17
2017-02-10T05:05:50.381Z,40.17
2017-02-10T05:06:23.120Z,40.17
2017-02-10T05:06:55.846Z,40.2
2017-02-10T05:07:28.577Z,40.2
2017-02-10T05:08:01.316Z,40.17
2017-02-10T05:08:34.070Z,40.27
2017-02-10T05:09:06.870Z,40.27
2017-02-10T05:09:39.616Z,40.17
2017-02-10T05:10:12.347Z,40.17
2017-02-10T05:10:45.104Z,40.17
2017-02-10T05:11:17.845Z,40.17
2017-02-10T05:11:50.574Z,40.17
2017-02-10T05:12:23.302Z,40.08
2017-02-10T05:12:56.052Z,40.17
2017-02-10T05:13:28.776Z,40.08
2017-02-10T05:14:01.506Z,40.27
2017-02-10T05:14:34.243Z,40.17
2017-02-10T05:15:06.966Z,40.08
2017-02-10T05:15:39.714Z,40.08
2017-02-10T05:16:12.459Z,40.08
2017-02-10T05:16:45.196Z,40.27
2017-02-10T05:17:17.930Z,40.08
2017-02-10T05:17:50.661Z,40.08
2017-02-10T05:18:23.404Z,40.17
2017-02-10T05:18:56.143Z,40.08
2017-02-10T05:19:28.858Z,40.08
2017-02-10T05:20:01.582Z,40.17
2017-02-10T05:20:34.317Z,40.17
2017-02-10T05:21:07.048Z,40.08
2017-02-10T05:21:39.777Z,40.08
2017-02-10T05:22:12.515Z,40.37
2017-02-10T05:22:45.250Z,39.98
2017-02-10T05:23:17.984Z,39.98
2017-02-10T05:23:50.745Z,40.17
2017-02-10T05:24:23.476Z,39.98
2017-02-10T05:24:56.221Z,40.08
2017-02-10T05:25:28.947Z,40.17
2017-02-10T05:26:01.688Z,39.89
2017-02-10T05:26:34.427Z,39.98
2017-02-10T05:27:07.151Z,39.98
2017-02-10T05:27:39.882Z,40.27
2017-02-10T05:28:12.630Z,40.08
2017-02-10T05:28:45.355Z,40.27
2017-02-10T05:29:18.070Z,39.98
2017-02-10T05:29:50.834Z,39.89
2017-02-10T05:30:23.563Z,40.27
2017-02-10T05:30:56.295Z,39.98
2017-02-10T05:31:29.020Z,39.89
2017-02-10T05:32:01.755Z,40.27
2017-02-10T05:32:34.509Z,39.98
2017-02-10T05:33:07.251Z,39.98
2017-02-10T05:33:39.979Z,39.98
2017-02-10T05:34:12.738Z,40.17
2017-02-10T05:34:45.480Z,39.98
2017-02-10T05:35:18.224Z,39.89
2017-02-10T05:35:50.951Z,40.17
2017-02-10T05:36:23.689Z,40.17
2017-02-10T05:36:56.416Z,39.98
2017-02-10T05:37:29.147Z,40.27
2017-02-10T05:38:01.889Z,40.08
2017-02-10T05:38:34.617Z,39.98
2017-02-10T05:39:07.400Z,40.17
2017-02-10T05:39:40.135Z,39.98
2017-02-10T05:40:12.872Z,40.17
2017-02-10T05:40:45.605Z,40.17
2017-02-10T05:41:18.332Z,39.98
2017-02-10T05:41:51.065Z,39.98
2017-02-10T05:42:23.811Z,40.37
2017-02-10T05:42:56.562Z,40
2017-02-10T05:43:29.309Z,39.98
2017-02-10T05:44:02.097Z,39.98
2017-02-10T05:44:34.823Z,40.27
2017-02-10T05:45:07.539Z,40.17
2017-02-10T05:45:40.275Z,39.98
2017-02-10T05:46:12.992Z,40.17
2017-02-10T05:46:45.734Z,39.98
2017-02-10T05:47:18.467Z,40.17
2017-02-10T05:47:51.199Z,40.08
2017-02-10T05:48:23.920Z,39.98
2017-02-10T05:48:56.646Z,39.98
2017-02-10T05:49:29.392Z,40.08
2017-02-10T05:50:03.147Z,40.17
2017-02-10T05:50:35.885Z,40.27
2017-02-10T05:51:08.628Z,40.27
2017-02-10T05:51:41.383Z,40
2017-02-10T05:52:14.117Z,40.37
2017-02-10T05:52:46.839Z,40.08
2017-02-10T05:53:19.578Z,40.29
2017-02-10T05:53:52.323Z,40.17
2017-02-10T05:54:25.053Z,39.98
2017-02-10T05:54:57.790Z,39.89
2017-02-10T05:55:30.517Z,40.27
2017-02-10T05:56:03.243Z,40.47
2017-02-10T05:56:35.982Z,40.27
2017-02-10T05:57:08.718Z,40.27
2017-02-10T05:57:42.237Z,40.47
2017-02-10T05:58:14.975Z,39.79
2017-02-10T05:58:47.712Z,39.98
2017-02-10T05:59:20.442Z,40.08
2017-02-10T05:59:53.165Z,40.47
2017-02-10T06:00:25.923Z,40.27
2017-02-10T06:00:58.669Z,40.17
2017-02-10T06:01:31.408Z,40.17
2017-02-10T06:02:04.141Z,40.08
2017-02-10T06:02:36.879Z,40.27
2017-02-10T06:03:09.610Z,40.08
2017-02-10T06:03:42.329Z,40.27
2017-02-10T06:04:15.056Z,39.7
2017-02-10T06:04:47.786Z,40.47
2017-02-10T06:05:20.526Z,40.27
2017-02-10T06:05:53.263Z,39.98
2017-02-10T06:06:25.995Z,40.27
2017-02-10T06:06:58.718Z,40.47
2017-02-10T06:07:31.458Z,39.7
2017-02-10T06:08:04.180Z,40.27
2017-02-10T06:08:36.912Z,40.08
2017-02-10T06:09:09.636Z,40.17
2017-02-10T06:09:42.366Z,39.5
2017-02-10T06:10:15.105Z,40.17
2017-02-10T06:10:47.913Z,40.37
2017-02-10T06:11:20.692Z,39.7
2017-02-10T06:11:53.427Z,40.08
2017-02-10T06:12:26.154Z,39.79
2017-02-10T06:12:58.883Z,40.17
2017-02-10T06:13:31.654Z,39.79
2017-02-10T06:14:04.385Z,39.5
2017-02-10T06:14:37.108Z,40.08
2017-02-10T06:15:09.843Z,39.7
2017-02-10T06:15:42.576Z,39.79
2017-02-10T06:16:15.320Z,39.7
2017-02-10T06:16:48.049Z,39.89
2017-02-10T06:17:20.784Z,39.5
2017-02-10T06:17:53.511Z,39.6
2017-02-10T06:18:26.255Z,39.5
2017-02-10T06:18:58.983Z,40.08
2017-02-10T06:19:31.713Z,39.7
2017-02-10T06:20:04.451Z,40.08
2017-02-10T06:20:37.192Z,40.08
2017-02-10T06:21:10.101Z,39.7
2017-02-10T06:21:44.191Z,39.6
2017-02-10T06:22:16.927Z,39.7
2017-02-10T06:22:51.288Z,39.6
2017-02-10T06:23:24.020Z,40.08
2017-02-10T06:23:56.779Z,39.6
2017-02-10T06:24:30.235Z,40.08
2017-02-10T06:25:02.981Z,39.6
2017-02-10T06:25:35.716Z,39.6
2017-02-10T06:26:08.504Z,39.7
2017-02-10T06:26:42.337Z,40.08
2017-02-10T06:27:17.560Z,39.7
2017-02-10T06:27:52.739Z,39.79
2017-02-10T06:28:25.664Z,39.6
2017-02-10T06:29:00.056Z,40.17
2017-02-10T06:29:34.625Z,39.7
2017-02-10T06:30:07.365Z,39.7
2017-02-10T06:30:40.147Z,39.7
2017-02-10T06:31:12.898Z,39.6
2017-02-10T06:31:45.628Z,39.6
2017-02-10T06:32:18.392Z,39.98
2017-02-10T06:32:51.129Z,39.6
2017-02-10T06:33:23.869Z,39.6
2017-02-10T06:33:56.601Z,39.6
2017-02-10T06:34:30.165Z,39.6
2017-02-10T06:35:02.949Z,39.89
2017-02-10T06:35:38.090Z,39.7
2017-02-10T06:36:14.751Z,39.6
2017-02-10T06:36:51.105Z,39.89
2017-02-10T06:37:25.753Z,39.79
2017-02-10T06:37:58.569Z,40.1
2017-02-10T06:38:31.300Z,39.7
2017-02-10T06:39:04.075Z,39.7
2017-02-10T06:39:36.813Z,39.6
2017-02-10T06:40:10.692Z,39.6
2017-02-10T06:40:43.580Z,39.98
2017-02-10T06:41:16.318Z,39.79
2017-02-10T06:41:49.061Z,39.7
2017-02-10T06:42:21.823Z,39.7
2017-02-10T06:42:54.576Z,39.79
2017-02-10T06:43:27.365Z,39.7
2017-02-10T06:44:00.112Z,40.17
2017-02-10T06:44:32.888Z,39.7
2017-02-10T06:45:05.648Z,40.17
2017-02-10T06:45:40.204Z,39.7
2017-02-10T06:46:12.941Z,39.79
2017-02-10T06:46:45.688Z,39.7
2017-02-10T06:47:18.425Z,40.08
2017-02-10T06:47:52.144Z,40.08
2017-02-10T06:48:24.881Z,39.98
2017-02-10T06:48:57.677Z,39.7
2017-02-10T06:49:31.882Z,39.7
2017-02-10T06:50:05.567Z,39.7
2017-02-10T06:50:38.306Z,40.17
2017-02-10T06:51:11.065Z,40.08
2017-02-10T06:51:43.800Z,39.79
2017-02-10T06:52:16.538Z,40.08
2017-02-10T06:52:49.272Z,40.17
2017-02-10T06:53:22.035Z,40.08
2017-02-10T06:53:54.778Z,40.08
2017-02-10T06:54:27.539Z,40.08
2017-02-10T06:55:00.275Z,39.7
2017-02-10T06:55:33.008Z,39.79
2017-02-10T06:56:07.265Z,40.08
2017-02-10T06:56:40.001Z,40.08
2017-02-10T06:57:13.569Z,39.7
2017-02-10T06:57:47.667Z,39.6
2017-02-10T06:58:20.600Z,39.7
2017-02-10T06:58:53.342Z,39.79
2017-02-10T06:59:26.074Z,39.6
2017-02-10T06:59:58.817Z,40.17
2017-02-10T07:00:31.552Z,39.98
2017-02-10T07:01:04.280Z,39.98
2017-02-10T07:01:37.048Z,40.08
2017-02-10T07:02:09.781Z,39.79
2017-02-10T07:02:42.521Z,39.98
2017-02-10T07:03:15.258Z,40.08